createdAt,value
2023-04-30T00:00:49.636Z,285.55
2023-04-30T00:03:17.424Z,275.42
2023-04-30T00:05:45.182Z,293.70
2023-04-30T00:08:14.132Z,283.00
2023-04-30T00:10:41.770Z,292.33
2023-04-30T00:13:10.242Z,285.85
2023-04-30T00:15:37.893Z,289.90
2023-04-30T00:18:07.013Z,274.50
2023-04-30T00:20:35.583Z,278.88
2023-04-30T00:23:03.268Z,296.98
2023-04-30T00:25:32.307Z,273.90
2023-04-30T00:27:59.920Z,267.95
2023-04-30T00:30:27.644Z,295.17
2023-04-30T00:32:55.504Z,283.85
2023-04-30T00:35:23.195Z,285.55
2023-04-30T00:37:50.840Z,295.88
2023-04-30T00:40:18.734Z,312.75
2023-04-30T00:42:48.613Z,281.15
2023-04-30T00:45:17.918Z,280.40
2023-04-30T00:47:45.580Z,277.95
2023-04-30T00:50:15.776Z,278.73
2023-04-30T00:52:44.188Z,302.40
2023-04-30T00:55:13.198Z,284.55
2023-04-30T00:57:41.641Z,295.38
2023-04-30T01:00:11.895Z,299.25
2023-04-30T01:02:39.702Z,287.05
2023-04-30T01:05:08.915Z,275.40
2023-04-30T01:07:38.644Z,289.95
2023-04-30T01:10:07.396Z,304.52
2023-04-30T01:12:40.507Z,296.33
2023-04-30T01:15:16.264Z,288.42
2023-04-30T01:17:49.377Z,292.92
2023-04-30T01:20:17.303Z,298.75
2023-04-30T01:22:51.342Z,296.77
2023-04-30T01:25:43.121Z,290.52
2023-04-30T01:28:16.342Z,272.98
2023-04-30T01:30:45.708Z,268.23
2023-04-30T01:33:13.601Z,281.98
2023-04-30T01:36:06.739Z,279.70
2023-04-30T01:38:47.966Z,269.50
2023-04-30T01:41:30.827Z,264.40
2023-04-30T01:44:13.911Z,284.08
2023-04-30T01:46:43.430Z,284.75
2023-04-30T01:49:20.947Z,285.75
2023-04-30T01:51:55.966Z,279.55
2023-04-30T01:54:28.581Z,275.75
2023-04-30T01:57:04.920Z,280.88
2023-04-30T01:59:37.335Z,294.95
2023-04-30T02:02:05.129Z,292.30
2023-04-30T02:04:33.286Z,299.17
2023-04-30T02:07:01.239Z,276.05
2023-04-30T02:09:28.907Z,274.65
2023-04-30T02:11:57.754Z,284.15
2023-04-30T02:14:26.003Z,278.02
2023-04-30T02:16:56.297Z,301.50
2023-04-30T02:19:23.995Z,293.73
2023-04-30T02:21:51.731Z,290.33
2023-04-30T02:24:19.340Z,301.90
2023-04-30T02:26:46.996Z,290.48
2023-04-30T02:29:14.836Z,270.00
2023-04-30T02:31:42.525Z,293.70
2023-04-30T02:34:13.340Z,286.35
2023-04-30T02:36:41.188Z,305.50
2023-04-30T02:39:09.058Z,288.65
2023-04-30T02:41:37.410Z,303.85
2023-04-30T02:44:05.614Z,279.30
2023-04-30T02:46:33.297Z,286.77
2023-04-30T02:49:01.007Z,286.40
2023-04-30T02:51:30.045Z,292.15
2023-04-30T02:53:57.928Z,291.52
2023-04-30T02:56:25.546Z,277.80
2023-04-30T02:58:53.644Z,289.88
2023-04-30T03:01:21.428Z,300.42
2023-04-30T03:03:49.565Z,284.25
2023-04-30T03:06:17.290Z,279.30
2023-04-30T03:08:46.294Z,290.15
2023-04-30T03:11:14.023Z,291.77
2023-04-30T03:13:42.116Z,299.70
2023-04-30T03:16:11.156Z,293.40
2023-04-30T03:18:38.845Z,292.63
2023-04-30T03:21:06.615Z,291.88
2023-04-30T03:23:34.294Z,289.45
2023-04-30T03:26:03.597Z,283.58
2023-04-30T03:28:31.277Z,300.60
2023-04-30T03:30:59.179Z,304.60
2023-04-30T03:33:27.295Z,296.40
2023-04-30T03:35:54.939Z,299.05
2023-04-30T03:38:22.835Z,297.20
2023-04-30T03:40:50.465Z,301.00
2023-04-30T03:43:19.520Z,283.17
2023-04-30T03:45:47.456Z,305.15
2023-04-30T03:48:15.235Z,295.75
2023-04-30T03:50:42.909Z,310.02
2023-04-30T03:53:10.541Z,291.98
2023-04-30T03:55:38.565Z,284.33
2023-04-30T03:58:06.260Z,305.42
2023-04-30T04:00:35.565Z,294.33
2023-04-30T04:03:04.252Z,292.77
2023-04-30T04:05:32.007Z,281.08
2023-04-30T04:07:59.699Z,282.10
2023-04-30T04:10:27.349Z,304.40
2023-04-30T04:12:55.014Z,289.65
2023-04-30T04:15:22.859Z,297.95
2023-04-30T04:17:52.229Z,303.90
2023-04-30T04:20:20.041Z,287.50
2023-04-30T04:22:47.781Z,292.02
2023-04-30T04:25:18.072Z,287.63
2023-04-30T04:27:46.272Z,299.05
2023-04-30T04:30:14.705Z,278.27
2023-04-30T04:32:49.468Z,283.25
2023-04-30T04:35:19.608Z,288.70
2023-04-30T04:37:47.654Z,281.17
2023-04-30T04:40:15.475Z,296.95
2023-04-30T04:42:43.144Z,298.33
2023-04-30T04:45:12.997Z,272.17
2023-04-30T04:47:41.331Z,284.27
2023-04-30T04:50:09.778Z,299.10
2023-04-30T04:52:39.000Z,292.83
2023-04-30T04:55:07.218Z,277.70
2023-04-30T04:57:34.889Z,290.77
2023-04-30T05:00:02.786Z,276.10
2023-04-30T05:02:30.565Z,283.17
2023-04-30T05:04:58.397Z,270.45
2023-04-30T05:07:26.242Z,270.63
2023-04-30T05:09:55.524Z,280.52
2023-04-30T05:12:23.624Z,284.77
2023-04-30T05:14:51.281Z,289.20
2023-04-30T05:17:19.110Z,292.20
2023-04-30T05:19:47.707Z,275.30
2023-04-30T05:22:15.373Z,267.05
2023-04-30T05:24:43.283Z,276.75
2023-04-30T05:27:12.266Z,293.98
2023-04-30T05:29:39.937Z,270.33
2023-04-30T05:32:08.026Z,278.63
2023-04-30T05:34:35.978Z,282.42
2023-04-30T05:37:03.963Z,286.20
2023-04-30T05:39:31.552Z,280.75
2023-04-30T05:41:59.171Z,266.05
2023-04-30T05:44:30.302Z,289.15
2023-04-30T05:46:57.942Z,297.38
2023-04-30T05:49:25.746Z,295.30
2023-04-30T05:51:53.362Z,286.48
2023-04-30T05:54:20.960Z,283.88
2023-04-30T05:56:48.572Z,279.17
2023-04-30T05:59:16.197Z,276.10
2023-04-30T06:01:45.313Z,281.50
2023-04-30T06:04:13.497Z,276.15
2023-04-30T06:06:41.188Z,302.70
2023-04-30T06:09:09.007Z,282.75
2023-04-30T06:11:37.213Z,274.92
2023-04-30T06:14:05.369Z,292.02
2023-04-30T06:16:33.346Z,286.15
2023-04-30T06:19:02.496Z,281.33
2023-04-30T06:21:30.664Z,288.73
2023-04-30T06:23:58.440Z,301.10
2023-04-30T06:26:26.392Z,293.95
2023-04-30T06:28:54.103Z,319.65
2023-04-30T06:31:21.747Z,306.30
2023-04-30T06:33:50.157Z,310.30
2023-04-30T06:36:19.588Z,290.30
2023-04-30T06:38:48.022Z,300.65
2023-04-30T06:41:16.280Z,321.45
2023-04-30T06:43:44.373Z,324.67
2023-04-30T06:46:12.014Z,337.13
2023-04-30T06:48:39.726Z,321.52
2023-04-30T06:51:09.883Z,339.05
2023-04-30T06:53:39.604Z,308.80
2023-04-30T06:56:07.550Z,313.50
2023-04-30T06:58:35.265Z,334.83
2023-04-30T07:01:03.361Z,333.38
2023-04-30T07:03:31.212Z,324.88
2023-04-30T07:05:58.974Z,333.08
2023-04-30T07:08:26.741Z,327.02
2023-04-30T07:10:56.237Z,317.48
2023-04-30T07:13:23.935Z,322.08
2023-04-30T07:15:51.718Z,305.48
2023-04-30T07:18:19.452Z,307.90
2023-04-30T07:20:47.402Z,311.38
2023-04-30T07:23:15.025Z,304.85
2023-04-30T07:25:42.693Z,297.42
2023-04-30T07:28:11.936Z,288.20
2023-04-30T07:30:39.920Z,272.58
2023-04-30T07:33:08.300Z,260.05
2023-04-30T07:35:36.461Z,263.50
2023-04-30T07:38:04.814Z,268.60
2023-04-30T07:40:36.266Z,251.07
2023-04-30T07:43:05.085Z,232.23
2023-04-30T07:45:35.113Z,237.20
2023-04-30T07:48:03.116Z,210.80
2023-04-30T07:50:33.859Z,205.23
2023-04-30T07:53:02.569Z,232.02
2023-04-30T07:55:30.417Z,243.77
2023-04-30T07:57:58.723Z,223.88
2023-04-30T08:00:26.670Z,218.82
2023-04-30T08:02:56.021Z,229.75
2023-04-30T08:05:23.771Z,244.00
2023-04-30T08:07:51.452Z,229.10
2023-04-30T08:10:19.172Z,241.93
2023-04-30T08:12:46.998Z,253.18
2023-04-30T08:15:14.669Z,245.23
2023-04-30T08:17:42.393Z,226.75
2023-04-30T08:20:12.366Z,232.98
2023-04-30T08:22:40.257Z,240.73
2023-04-30T08:25:08.453Z,229.45
2023-04-30T08:27:36.085Z,245.73
2023-04-30T08:30:04.238Z,244.45
2023-04-30T08:32:31.944Z,239.93
2023-04-30T08:34:59.603Z,221.70
2023-04-30T08:37:28.872Z,243.98
2023-04-30T08:39:56.866Z,236.93
2023-04-30T08:42:27.122Z,234.38
2023-04-30T08:44:54.792Z,222.50
2023-04-30T08:47:23.314Z,237.77
2023-04-30T08:49:51.990Z,226.40
2023-04-30T08:52:20.438Z,222.73
2023-04-30T08:54:51.541Z,211.02
2023-04-30T08:57:19.825Z,216.63
2023-04-30T08:59:47.803Z,215.63
2023-04-30T09:02:15.522Z,231.23
2023-04-30T09:04:43.195Z,204.00
2023-04-30T09:07:13.290Z,219.15
2023-04-30T09:09:42.054Z,220.40
2023-04-30T09:12:18.684Z,218.63
2023-04-30T09:15:01.408Z,234.40
2023-04-30T09:17:31.222Z,212.30
2023-04-30T09:20:08.226Z,207.65
2023-04-30T09:22:37.605Z,222.32
2023-04-30T09:25:06.529Z,205.05
2023-04-30T09:27:35.838Z,221.43
2023-04-30T09:30:05.541Z,221.65
2023-04-30T09:32:33.275Z,213.65
2023-04-30T09:35:00.985Z,209.40
2023-04-30T09:37:37.241Z,216.77
2023-04-30T09:40:05.936Z,213.43
2023-04-30T09:42:35.152Z,210.35
2023-04-30T09:45:05.605Z,204.48
2023-04-30T09:47:34.165Z,208.32
2023-04-30T09:50:01.892Z,218.65
2023-04-30T09:52:29.628Z,203.02
2023-04-30T09:54:57.270Z,207.55
2023-04-30T09:57:25.590Z,190.88
2023-04-30T09:59:55.788Z,203.25
2023-04-30T10:02:24.224Z,205.40
2023-04-30T10:04:58.942Z,198.20
2023-04-30T10:07:32.291Z,208.27
2023-04-30T10:10:04.927Z,199.52
2023-04-30T10:12:40.602Z,204.23
2023-04-30T10:15:15.107Z,207.25
2023-04-30T10:17:48.352Z,199.43
2023-04-30T10:20:18.340Z,192.10
2023-04-30T10:22:48.035Z,201.52
2023-04-30T10:25:16.329Z,201.85
2023-04-30T10:27:44.128Z,204.70
2023-04-30T10:30:14.857Z,201.40
2023-04-30T10:32:49.827Z,213.25
2023-04-30T10:35:23.417Z,202.00
2023-04-30T10:37:55.983Z,216.57
2023-04-30T10:40:23.693Z,219.55
2023-04-30T10:42:51.717Z,230.32
2023-04-30T10:45:35.723Z,220.80
2023-04-30T10:48:03.991Z,223.02
2023-04-30T10:50:32.172Z,206.25
2023-04-30T10:53:04.446Z,205.20
2023-04-30T10:55:33.057Z,207.52
2023-04-30T10:58:00.847Z,206.13
2023-04-30T11:00:31.808Z,198.48
2023-04-30T11:03:04.810Z,199.43
2023-04-30T11:05:37.745Z,185.98
2023-04-30T11:08:06.263Z,201.13
2023-04-30T11:10:35.684Z,189.48
2023-04-30T11:13:06.442Z,202.20
2023-04-30T11:15:41.737Z,180.20
2023-04-30T11:18:10.008Z,197.40
2023-04-30T11:20:41.326Z,191.05
2023-04-30T11:23:10.053Z,207.57
2023-04-30T11:25:42.315Z,197.23
2023-04-30T11:28:14.178Z,197.65
2023-04-30T11:30:51.035Z,198.48
2023-04-30T11:33:19.263Z,186.90
2023-04-30T11:35:46.999Z,170.70
2023-04-30T11:38:16.463Z,176.13
2023-04-30T11:40:44.888Z,189.30
2023-04-30T11:43:22.619Z,201.07
2023-04-30T11:46:02.701Z,179.85
2023-04-30T11:48:34.713Z,173.80
2023-04-30T11:51:15.634Z,169.40
2023-04-30T11:53:43.642Z,168.77
2023-04-30T11:56:11.587Z,164.50
2023-04-30T11:58:40.180Z,160.60
2023-04-30T12:01:10.783Z,157.27
2023-04-30T12:03:42.979Z,186.48
2023-04-30T12:06:11.936Z,168.30
2023-04-30T12:08:42.527Z,165.50
2023-04-30T12:11:21.601Z,146.60
2023-04-30T12:13:53.608Z,137.73
2023-04-30T12:16:22.825Z,162.60
2023-04-30T12:18:52.829Z,166.65
2023-04-30T12:21:22.753Z,154.98
2023-04-30T12:23:50.625Z,164.13
2023-04-30T12:26:18.771Z,156.13
2023-04-30T12:28:48.716Z,158.77
2023-04-30T12:31:18.618Z,145.43
2023-04-30T12:33:56.952Z,133.70
2023-04-30T12:36:31.601Z,139.77
2023-04-30T12:39:12.992Z,145.02
2023-04-30T12:41:42.630Z,157.02
2023-04-30T12:44:21.631Z,136.40
2023-04-30T12:46:50.462Z,150.63
2023-04-30T12:49:27.246Z,135.75
2023-04-30T12:52:01.052Z,131.05
2023-04-30T12:54:30.240Z,131.88
2023-04-30T12:57:00.180Z,140.73
2023-04-30T12:59:28.057Z,132.82
2023-04-30T13:01:56.590Z,133.48
2023-04-30T13:04:26.201Z,127.95
2023-04-30T13:06:54.003Z,127.35
2023-04-30T13:09:22.325Z,127.20
2023-04-30T13:11:50.752Z,121.97
2023-04-30T13:14:18.666Z,118.57
2023-04-30T13:16:46.355Z,126.75
2023-04-30T13:19:14.023Z,127.18
2023-04-30T13:21:43.249Z,125.85
2023-04-30T13:24:11.065Z,127.50
2023-04-30T13:26:38.882Z,116.97
2023-04-30T13:29:06.508Z,120.00
2023-04-30T13:31:34.563Z,129.73
2023-04-30T13:34:02.363Z,122.78
2023-04-30T13:36:30.213Z,132.77
2023-04-30T13:38:59.262Z,133.65
2023-04-30T13:41:27.220Z,117.57
2023-04-30T13:43:55.006Z,128.18
2023-04-30T13:46:22.710Z,117.53
2023-04-30T13:48:53.047Z,121.75
2023-04-30T13:51:20.912Z,119.80
2023-04-30T13:53:48.880Z,120.72
2023-04-30T13:56:17.919Z,117.75
2023-04-30T13:58:46.414Z,118.95
2023-04-30T14:01:14.399Z,121.60
2023-04-30T14:03:42.145Z,125.85
2023-04-30T14:06:09.904Z,119.65
2023-04-30T14:08:37.635Z,126.47
2023-04-30T14:11:05.354Z,118.45
2023-04-30T14:13:34.520Z,114.60
2023-04-30T14:16:02.560Z,118.03
2023-04-30T14:18:30.234Z,118.25
2023-04-30T14:20:57.844Z,119.53
2023-04-30T14:23:25.981Z,125.88
2023-04-30T14:25:54.413Z,124.38
2023-04-30T14:28:22.061Z,120.53
2023-04-30T14:30:51.144Z,132.63
2023-04-30T14:33:18.838Z,131.02
2023-04-30T14:35:47.407Z,116.25
2023-04-30T14:38:15.391Z,115.88
2023-04-30T14:40:44.191Z,121.53
2023-04-30T14:43:11.917Z,125.25
2023-04-30T14:45:39.905Z,122.45
2023-04-30T14:48:09.601Z,127.63
2023-04-30T14:50:37.364Z,122.25
2023-04-30T14:53:05.144Z,120.88
2023-04-30T14:55:33.166Z,124.20
2023-04-30T14:58:00.940Z,118.93
2023-04-30T15:00:29.039Z,126.82
2023-04-30T15:02:56.805Z,118.53
2023-04-30T15:05:25.944Z,117.03
2023-04-30T15:07:54.152Z,116.15
2023-04-30T15:10:22.046Z,125.35
2023-04-30T15:12:49.708Z,119.95
2023-04-30T15:15:18.923Z,128.43
2023-04-30T15:17:46.876Z,120.32
2023-04-30T15:20:14.724Z,125.15
2023-04-30T15:22:44.778Z,127.13
2023-04-30T15:25:12.371Z,122.55
2023-04-30T15:27:41.211Z,121.85
2023-04-30T15:30:10.296Z,127.32
2023-04-30T15:32:38.232Z,126.38
2023-04-30T15:35:06.945Z,131.13
2023-04-30T15:37:35.008Z,126.70
2023-04-30T15:40:04.800Z,124.72
2023-04-30T15:42:32.496Z,119.03
2023-04-30T15:45:00.138Z,121.65
2023-04-30T15:47:28.024Z,118.65
2023-04-30T15:49:56.853Z,116.80
2023-04-30T15:52:24.799Z,124.07
2023-04-30T15:54:52.452Z,114.55
2023-04-30T15:57:21.649Z,122.45
2023-04-30T15:59:49.329Z,122.93
2023-04-30T16:02:17.139Z,124.78
2023-04-30T16:04:44.852Z,116.30
2023-04-30T16:07:13.385Z,128.27
2023-04-30T16:09:41.789Z,126.07
2023-04-30T16:12:09.553Z,115.28
2023-04-30T16:14:38.573Z,121.45
2023-04-30T16:17:06.252Z,113.00
2023-04-30T16:19:33.935Z,119.88
2023-04-30T16:22:01.696Z,119.32
2023-04-30T16:24:29.550Z,118.88
2023-04-30T16:26:57.364Z,118.30
2023-04-30T16:29:25.027Z,122.47
2023-04-30T16:31:54.584Z,124.35
2023-04-30T16:34:22.375Z,119.60
2023-04-30T16:36:50.091Z,119.25
2023-04-30T16:39:18.184Z,121.63
2023-04-30T16:41:45.820Z,119.82
2023-04-30T16:44:13.622Z,125.80
2023-04-30T16:46:41.424Z,121.22
2023-04-30T16:49:10.403Z,121.43
2023-04-30T16:51:38.008Z,117.65
2023-04-30T16:54:06.099Z,125.40
2023-04-30T16:56:33.752Z,119.53
2023-04-30T16:59:01.455Z,122.75
2023-04-30T17:01:29.261Z,116.28
2023-04-30T17:03:56.928Z,125.30
2023-04-30T17:06:26.288Z,127.90
2023-04-30T17:08:55.139Z,129.10
2023-04-30T17:11:24.176Z,120.03
2023-04-30T17:13:53.508Z,118.90
2023-04-30T17:16:21.296Z,118.53
2023-04-30T17:18:49.445Z,123.22
2023-04-30T17:21:17.299Z,126.05
2023-04-30T17:23:46.324Z,115.47
2023-04-30T17:26:14.004Z,122.88
2023-04-30T17:28:41.675Z,116.50
2023-04-30T17:31:09.416Z,123.80
2023-04-30T17:33:37.725Z,125.72
2023-04-30T17:36:05.802Z,132.98
2023-04-30T17:38:33.484Z,134.10
2023-04-30T17:41:02.670Z,142.00
2023-04-30T17:43:30.434Z,147.55
2023-04-30T17:45:58.124Z,149.27
2023-04-30T17:48:25.955Z,145.30
2023-04-30T17:50:53.720Z,144.48
2023-04-30T17:53:21.419Z,139.60
2023-04-30T17:55:49.089Z,134.50
2023-04-30T17:58:18.112Z,140.60
2023-04-30T18:00:46.182Z,143.18
2023-04-30T18:03:13.950Z,141.52
2023-04-30T18:05:42.235Z,144.90
2023-04-30T18:08:10.181Z,156.27
2023-04-30T18:10:38.023Z,168.85
2023-04-30T18:13:06.130Z,171.07
2023-04-30T18:15:35.167Z,162.77
2023-04-30T18:18:03.357Z,167.98
2023-04-30T18:20:31.296Z,173.55
2023-04-30T18:22:59.051Z,182.07
2023-04-30T18:25:27.566Z,184.30
2023-04-30T18:27:55.217Z,182.32
2023-04-30T18:30:22.884Z,189.60
2023-04-30T18:32:51.860Z,186.73
2023-04-30T18:35:19.590Z,206.50
2023-04-30T18:37:47.493Z,209.82
2023-04-30T18:40:15.184Z,201.05
2023-04-30T18:42:43.000Z,227.95
2023-04-30T18:45:11.726Z,224.05
2023-04-30T18:47:39.468Z,237.98
2023-04-30T18:50:13.268Z,246.40
2023-04-30T18:52:41.298Z,263.52
2023-04-30T18:55:11.564Z,264.88
2023-04-30T18:57:41.947Z,262.23
2023-04-30T19:00:12.182Z,265.83
2023-04-30T19:02:40.408Z,288.33
2023-04-30T19:05:09.903Z,285.35
2023-04-30T19:07:37.682Z,300.83
2023-04-30T19:10:06.704Z,319.98
2023-04-30T19:12:34.452Z,296.85
2023-04-30T19:15:02.432Z,310.30
2023-04-30T19:17:30.149Z,319.23
2023-04-30T19:19:58.830Z,336.40
2023-04-30T19:22:27.864Z,321.38
2023-04-30T19:24:56.281Z,324.70
2023-04-30T19:27:23.992Z,300.08
2023-04-30T19:29:53.586Z,322.95
2023-04-30T19:32:21.998Z,308.02
2023-04-30T19:34:50.601Z,298.40
2023-04-30T19:37:18.164Z,320.35
2023-04-30T19:39:48.260Z,328.80
2023-04-30T19:42:16.272Z,315.05
2023-04-30T19:44:44.108Z,308.30
2023-04-30T19:47:11.763Z,321.05
2023-04-30T19:49:39.459Z,325.27
2023-04-30T19:52:08.400Z,327.15
2023-04-30T19:54:36.313Z,333.75
2023-04-30T19:57:05.577Z,324.05
2023-04-30T19:59:33.269Z,333.42
2023-04-30T20:02:01.003Z,328.70
2023-04-30T20:04:28.808Z,317.77
2023-04-30T20:06:58.544Z,335.48
2023-04-30T20:09:26.245Z,320.83
2023-04-30T20:11:55.957Z,327.40
2023-04-30T20:14:24.934Z,329.75
2023-04-30T20:16:54.823Z,325.05
2023-04-30T20:19:23.228Z,319.08
2023-04-30T20:21:51.301Z,313.50
2023-04-30T20:24:18.996Z,320.98
2023-04-30T20:26:46.969Z,328.90
2023-04-30T20:29:14.576Z,312.35
2023-04-30T20:31:44.040Z,307.50
2023-04-30T20:34:11.781Z,325.38
2023-04-30T20:36:40.091Z,299.75
2023-04-30T20:39:08.493Z,321.67
2023-04-30T20:41:37.205Z,290.88
2023-04-30T20:44:05.702Z,317.77
2023-04-30T20:46:35.070Z,314.50
2023-04-30T20:49:05.024Z,296.10
2023-04-30T20:51:33.242Z,307.25
2023-04-30T20:54:00.904Z,290.73
2023-04-30T20:56:28.780Z,301.17
2023-04-30T20:58:56.400Z,310.17
2023-04-30T21:01:24.478Z,311.05
2023-04-30T21:03:52.300Z,282.10
2023-04-30T21:06:22.080Z,299.50
2023-04-30T21:08:49.733Z,298.23
2023-04-30T21:11:19.666Z,299.35
2023-04-30T21:13:48.835Z,297.80
2023-04-30T21:16:18.169Z,292.95
2023-04-30T21:18:46.197Z,304.45
2023-04-30T21:21:14.279Z,283.20
2023-04-30T21:23:43.824Z,308.50
2023-04-30T21:26:13.138Z,299.80
2023-04-30T21:28:40.871Z,301.92
2023-04-30T21:31:10.678Z,304.90
2023-04-30T21:33:38.953Z,290.65
2023-04-30T21:36:07.395Z,299.55
2023-04-30T21:38:35.257Z,290.25
2023-04-30T21:41:04.383Z,292.92
2023-04-30T21:43:33.132Z,305.45
2023-04-30T21:46:03.035Z,309.55
2023-04-30T21:48:31.610Z,290.27
2023-04-30T21:50:59.504Z,300.15
2023-04-30T21:53:27.879Z,315.55
2023-04-30T21:55:55.694Z,317.02
2023-04-30T21:58:25.264Z,279.48
2023-04-30T22:00:54.727Z,302.25
2023-04-30T22:03:23.034Z,299.67
2023-04-30T22:05:50.823Z,279.25
2023-04-30T22:08:19.053Z,287.23
2023-04-30T22:10:46.710Z,306.88
2023-04-30T22:13:15.252Z,293.55
2023-04-30T22:15:48.272Z,297.30
2023-04-30T22:18:17.247Z,323.42
2023-04-30T22:20:44.983Z,277.35
2023-04-30T22:23:13.466Z,312.15
2023-04-30T22:25:41.113Z,301.17
2023-04-30T22:28:11.312Z,297.40
2023-04-30T22:30:39.971Z,313.27
2023-04-30T22:33:09.828Z,298.45
2023-04-30T22:35:38.088Z,289.95
2023-04-30T22:38:06.762Z,303.60
2023-04-30T22:40:35.636Z,286.23
2023-04-30T22:43:05.407Z,311.38
2023-04-30T22:45:36.809Z,290.63
2023-04-30T22:48:05.401Z,305.77
2023-04-30T22:50:34.516Z,314.95
2023-04-30T22:53:02.750Z,298.30
2023-04-30T22:55:31.350Z,315.38
2023-04-30T22:58:00.028Z,296.05
2023-04-30T23:00:28.044Z,319.77
2023-04-30T23:02:56.245Z,299.45
2023-04-30T23:05:24.094Z,290.60
2023-04-30T23:07:54.301Z,305.92
2023-04-30T23:10:21.971Z,280.33
2023-04-30T23:12:50.395Z,300.92
2023-04-30T23:15:18.260Z,285.95
2023-04-30T23:17:46.561Z,299.58
2023-04-30T23:20:14.271Z,295.55
2023-04-30T23:22:42.375Z,282.20
2023-04-30T23:25:11.492Z,309.55
2023-04-30T23:27:39.084Z,273.35
2023-04-30T23:30:09.667Z,286.38
2023-04-30T23:32:37.572Z,282.20
2023-04-30T23:35:07.084Z,284.38
2023-04-30T23:37:34.772Z,284.98
2023-04-30T23:40:07.484Z,303.20
2023-04-30T23:42:36.605Z,268.98
2023-04-30T23:45:05.970Z,275.13
2023-04-30T23:47:36.041Z,273.65
2023-04-30T23:50:04.678Z,276.45
2023-04-30T23:52:33.079Z,261.08
2023-04-30T23:55:01.571Z,267.83
2023-04-30T23:57:29.515Z,263.27
2023-04-30T23:59:59.277Z,291.35
